METAR Data
IDs: Format: Raw Decoded Include TAF

Data at: 2003 UTC 12 Dec 2018

METAR for:KFFO (Wright-Patterson AFB, OH, US)
Text:KFFO 121956Z AUTO 18011KT 10SM OVC050 08/M02 A2989 RMK AO2 SLP131 T00751023
Temperature: 7.5°C ( 46°F)
Dewpoint: -2.3°C ( 28°F) [RH = 50%]
Pressure (altimeter):29.89 inches Hg (1012.3 mb) [Sea level pressure: 1013.1 mb]
Winds:from the S (180 degrees) at 13 MPH (11 knots; 5.7 m/s)
Visibility:10 or more sm (16+ km)
Ceiling:5000 feet AGL
Clouds: overcast cloud deck at 5000 feet AGL
QC Flag:automated observation with no human augmentation